Time;durP1;ratioP1;P1;durP2;ratioP2;P2;SDS_P1;SDS_P2;PMS_P1;PMS_P2;Temp;Humidity;BMP_temperature;BMP_pressure;BME280_temperature;BME280_humidity;BME280_pressure;Samples;Min_cycle;Max_cycle;Signal;HPM_P1;HPM_P2
2024/04/14 00:00:05;;;;;;;13.88;2.20;;;;;;;10.09;57.70;101638.41;5361240;26;20018;-69
2024/04/14 00:02:36;;;;;;;;;;;;;;;10.49;56.79;101655.63;5363896;26;20084;-68
2024/04/14 00:05:02;;;;;;;8.60;1.67;;;;;;;10.31;56.18;101662.22;5359753;26;19952;-71
2024/04/14 00:07:31;;;;;;;6.70;1.75;;;;;;;9.85;57.06;101665.97;5337318;26;20003;-68
2024/04/14 00:10:00;;;;;;;12.07;2.58;;;;;;;9.37;57.61;101659.25;5368092;26;20015;-68
2024/04/14 00:12:26;;;;;;;14.30;2.50;;;;;;;9.43;57.07;101658.22;5356199;26;20060;-71
2024/04/14 00:14:57;;;;;;;10.95;1.70;;;;;;;9.27;57.35;101666.38;5364022;26;21156;-73
2024/04/14 00:17:28;;;;;;;7.53;2.20;;;;;;;9.30;56.88;101658.50;5324853;26;22874;-74
2024/04/14 00:20:09;;;;;;;11.65;1.92;;;;;;;9.74;56.04;101659.22;5388678;26;20535;-73
2024/04/14 00:22:37;;;;;;;10.82;2.75;;;;;;;9.69;56.18;101653.25;5384105;26;20008;-71
2024/04/14 00:25:03;;;;;;;13.23;2.30;;;;;;;9.55;56.54;101666.63;5378968;26;20085;-69
2024/04/14 00:27:30;;;;;;;9.35;1.80;;;;;;;9.47;56.54;101665.09;5357485;26;20007;-70
2024/04/14 00:30:12;;;;;;;16.10;2.13;;;;;;;9.78;55.69;101676.53;5362275;26;20042;-71
2024/04/14 00:32:38;;;;;;;14.93;2.00;;;;;;;9.47;56.42;101675.53;5339997;26;20019;-71
2024/04/14 00:35:06;;;;;;;13.75;3.05;;;;;;;9.65;55.93;101680.31;5356355;26;20510;-72
2024/04/14 00:37:34;;;;;;;7.15;2.40;;;;;;;9.35;56.38;101681.88;5351626;26;20789;-72
2024/04/14 00:39:59;;;;;;;9.07;2.00;;;;;;;9.28;56.26;101685.53;5376088;26;20356;-71
2024/04/14 00:42:25;;;;;;;7.60;1.63;;;;;;;9.51;55.21;101687.63;5342672;26;20047;-71
2024/04/14 00:44:51;;;;;;;9.15;1.63;;;;;;;9.32;55.64;101695.88;5371389;26;20066;-71
2024/04/14 00:47:25;;;;;;;5.15;1.48;;;;;;;9.35;55.12;101695.78;5355517;26;20019;-72
2024/04/14 00:49:51;;;;;;;15.73;2.33;;;;;;;9.63;54.04;101703.00;5385115;26;20748;-72
2024/04/14 00:52:16;;;;;;;7.40;1.05;;;;;;;9.13;54.81;101694.53;5360814;26;20047;-73
2024/04/14 00:54:43;;;;;;;8.63;1.63;;;;;;;9.27;54.41;101689.88;5357489;26;20368;-73
2024/04/14 00:57:11;;;;;;;11.68;1.70;;;;;;;9.32;54.15;101693.25;5361509;26;20024;-72
2024/04/14 00:59:36;;;;;;;6.03;1.17;;;;;;;9.62;53.45;101680.41;5368621;26;20044;-71
2024/04/14 01:02:02;;;;;;;10.60;1.35;;;;;;;9.11;54.04;101678.06;5360075;26;20008;-71
2024/04/14 01:04:27;;;;;;;8.38;0.75;;;;;;;8.88;54.21;101686.34;5318680;26;20012;-74
2024/04/14 01:06:53;;;;;;;9.25;1.58;;;;;;;9.12;53.72;101687.59;5354455;26;20047;-73
2024/04/14 01:09:19;;;;;;;4.50;0.60;;;;;;;9.01;53.26;101697.38;5364242;26;20022;-74
2024/04/14 01:11:45;;;;;;;5.88;1.70;;;;;;;8.79;53.82;101697.81;5355865;26;20437;-73
2024/04/14 01:14:11;;;;;;;9.50;0.90;;;;;;;8.62;54.03;101705.06;5358174;26;20004;-73
2024/04/14 01:16:36;;;;;;;5.18;0.35;;;;;;;8.87;53.19;101711.53;5334462;26;20917;-72
2024/04/14 01:19:03;;;;;;;9.38;1.08;;;;;;;8.75;53.45;101696.16;5372384;26;20014;-74
2024/04/14 01:21:29;;;;;;;4.22;0.75;;;;;;;8.94;53.00;101707.06;5353650;26;20023;-74
2024/04/14 01:23:54;;;;;;;6.32;0.45;;;;;;;9.15;52.57;101704.03;5361441;26;20357;-72
2024/04/14 01:26:20;;;;;;;8.57;0.68;;;;;;;9.03;52.59;101701.69;5327539;26;20638;-75
2024/04/14 01:28:45;;;;;;;9.80;0.82;;;;;;;8.93;52.93;101701.00;5366023;26;20373;-73
2024/04/14 01:31:11;;;;;;;6.15;0.60;;;;;;;8.80;52.70;101704.72;5387734;26;20076;-73
2024/04/14 01:33:37;;;;;;;5.95;0.40;;;;;;;9.15;51.79;101711.00;5360404;26;20465;-73
2024/04/14 01:36:03;;;;;;;5.38;0.75;;;;;;;8.92;51.97;101721.91;5356029;26;20022;-73
2024/04/14 01:38:28;;;;;;;15.60;1.10;;;;;;;9.01;51.94;101718.22;5353575;26;20026;-72
2024/04/14 01:40:54;;;;;;;6.30;0.40;;;;;;;8.70;52.41;101719.66;5359118;26;20007;-73
2024/04/14 01:43:19;;;;;;;5.10;0.52;;;;;;;8.85;51.99;101721.16;5323792;26;20024;-74
2024/04/14 01:45:45;;;;;;;5.72;0.90;;;;;;;8.82;51.65;101722.97;5328529;26;20081;-73
2024/04/14 01:48:11;;;;;;;3.60;0.55;;;;;;;8.74;51.61;101725.72;5344831;26;20019;-73
2024/04/14 01:50:37;;;;;;;7.18;0.80;;;;;;;8.79;51.24;101731.69;5377162;26;20003;-75
2024/04/14 01:53:04;;;;;;;5.97;0.55;;;;;;;8.74;51.21;101720.50;5360011;26;21173;-73
2024/04/14 01:55:29;;;;;;;10.52;0.65;;;;;;;8.64;51.06;101730.19;5354325;26;20027;-73
2024/04/14 01:57:55;;;;;;;8.05;1.10;;;;;;;8.67;50.62;101729.28;5348736;26;21234;-73
2024/04/14 02:00:20;;;;;;;7.10;1.15;;;;;;;8.72;50.46;101732.72;5354820;26;20073;-73
2024/04/14 02:02:45;;;;;;;5.40;0.55;;;;;;;8.57;50.04;101732.06;5324424;26;20053;-73
2024/04/14 02:05:11;;;;;;;9.25;0.88;;;;;;;8.21;50.54;101741.38;5355366;26;20008;-73
2024/04/14 02:07:36;;;;;;;10.82;1.13;;;;;;;8.37;50.27;101744.56;5351684;26;20002;-70
2024/04/14 02:10:03;;;;;;;8.05;1.23;;;;;;;8.35;50.36;101749.81;5360175;26;20010;-71
2024/04/14 02:12:29;;;;;;;9.30;0.65;;;;;;;8.41;50.17;101759.28;5349475;26;20406;-72
2024/04/14 02:14:55;;;;;;;6.32;0.60;;;;;;;7.97;51.21;101758.22;5348885;26;20015;-71
2024/04/14 02:17:20;;;;;;;6.38;0.52;;;;;;;7.99;51.08;101779.03;5350985;26;20016;-73
2024/04/14 02:19:46;;;;;;;3.92;0.60;;;;;;;7.77;51.46;101781.09;5361257;26;20002;-74
2024/04/14 02:22:11;;;;;;;5.63;1.40;;;;;;;7.70;51.71;101785.50;5345303;26;20465;-72
2024/04/14 02:24:37;;;;;;;8.95;0.65;;;;;;;7.90;51.13;101787.84;5387229;26;20042;-68
2024/04/14 02:27:02;;;;;;;7.95;0.50;;;;;;;7.86;50.84;101784.41;5375729;26;20008;-69
2024/04/14 02:29:28;;;;;;;10.32;0.55;;;;;;;7.28;50.75;101791.19;5344121;26;19999;-69
2024/04/14 02:31:53;;;;;;;5.68;0.60;;;;;;;7.62;49.59;101788.19;5356607;26;20018;-68
2024/04/14 02:34:18;;;;;;;8.68;0.77;;;;;;;7.54;49.72;101787.41;5352842;26;20161;-69
2024/04/14 02:36:44;;;;;;;3.10;0.40;;;;;;;7.37;49.49;101798.03;5349884;26;20547;-69
2024/04/14 02:39:09;;;;;;;3.47;0.95;;;;;;;7.47;48.58;101789.25;5365137;26;20007;-68
2024/04/14 02:41:37;;;;;;;9.65;0.50;;;;;;;7.42;49.11;101792.75;5322763;26;20011;-68
2024/04/14 02:44:04;;;;;;;8.43;0.40;;;;;;;7.25;48.89;101799.03;5359502;26;20017;-68
2024/04/14 02:46:30;;;;;;;4.85;0.90;;;;;;;7.42;48.65;101801.44;5346982;26;20102;-72
2024/04/14 02:48:56;;;;;;;4.07;0.75;;;;;;;7.36;48.35;101801.50;5356470;26;20003;-71
2024/04/14 02:51:21;;;;;;;7.80;0.60;;;;;;;7.26;48.53;101808.53;5348453;26;21050;-68
2024/04/14 02:53:47;;;;;;;6.72;0.75;;;;;;;7.25;48.40;101809.44;5356882;26;20003;-69
2024/04/14 02:56:13;;;;;;;7.97;1.10;;;;;;;7.27;48.45;101812.88;5328035;26;19998;-69
2024/04/14 02:58:38;;;;;;;8.88;1.13;;;;;;;7.41;48.23;101809.25;5331283;26;20007;-69
2024/04/14 03:01:04;;;;;;;5.10;0.55;;;;;;;7.20;48.87;101811.22;5348606;26;20007;-69
2024/04/14 03:03:29;;;;;;;5.78;0.40;;;;;;;7.20;48.99;101805.16;5351323;26;20365;-70
2024/04/14 03:06:03;;;;;;;7.43;0.73;;;;;;;6.78;49.94;101809.94;5356040;26;20004;-70
2024/04/14 03:08:28;;;;;;;8.27;0.65;;;;;;;6.85;49.78;101807.25;5355120;26;20022;-69
2024/04/14 03:10:55;;;;;;;12.60;0.73;;;;;;;6.82;49.92;101814.19;5358229;26;20432;-70
2024/04/14 03:13:21;;;;;;;11.85;1.10;;;;;;;6.95;49.88;101815.78;5374534;26;20007;-69
2024/04/14 03:15:47;;;;;;;6.10;0.95;;;;;;;6.78;50.41;101813.38;5357061;26;20018;-70
2024/04/14 03:18:12;;;;;;;2.53;0.47;;;;;;;7.09;49.93;101818.28;5320917;26;20008;-70
2024/04/14 03:20:38;;;;;;;8.82;0.55;;;;;;;6.95;50.85;101820.13;5350870;26;22415;-71
2024/04/14 03:23:03;;;;;;;4.53;0.60;;;;;;;6.88;50.42;101817.59;5352539;26;20024;-70
2024/04/14 03:25:29;;;;;;;13.43;0.75;;;;;;;6.97;50.44;101815.78;5346307;26;20278;-70
2024/04/14 03:27:54;;;;;;;8.10;0.40;;;;;;;6.87;50.69;101822.81;5346738;26;20000;-70
2024/04/14 03:30:20;;;;;;;8.38;0.30;;;;;;;6.94;50.36;101832.28;5354418;26;20044;-70
2024/04/14 03:32:45;;;;;;;6.95;0.40;;;;;;;6.66;50.61;101826.47;5355380;26;20057;-69
2024/04/14 03:35:12;;;;;;;5.15;0.63;;;;;;;6.50;50.07;101823.97;5355594;26;20003;-70
2024/04/14 03:37:39;;;;;;;7.50;0.75;;;;;;;6.51;49.40;101819.66;5325491;26;20549;-71
2024/04/14 03:40:05;;;;;;;8.82;0.50;;;;;;;6.67;48.76;101826.44;5353018;26;20632;-69
2024/04/14 03:42:34;;;;;;;8.90;0.73;;;;;;;6.59;48.50;101824.78;5355388;26;20415;-70
2024/04/14 03:45:06;;;;;;;7.43;0.30;;;;;;;6.55;48.49;101833.47;5344500;26;20018;-69
2024/04/14 03:47:35;;;;;;;9.82;0.50;;;;;;;6.73;47.74;101842.84;5344825;26;20018;-71
2024/04/14 03:50:03;;;;;;;11.63;0.88;;;;;;;6.57;48.13;101850.78;5329566;26;20015;-71
2024/04/14 03:52:28;;;;;;;10.45;1.30;;;;;;;6.68;48.12;101848.94;5344087;26;20006;-72
2024/04/14 03:54:54;;;;;;;9.90;0.57;;;;;;;6.56;48.49;101858.59;5379506;26;20007;-70
2024/04/14 03:57:19;;;;;;;12.77;0.55;;;;;;;6.57;48.73;101849.91;5345092;26;20013;-70
2024/04/14 03:59:44;;;;;;;7.38;0.65;;;;;;;6.38;48.92;101857.84;5322187;26;20003;-70
2024/04/14 04:02:11;;;;;;;6.75;0.50;;;;;;;6.38;49.09;101857.84;5355695;26;20023;-70
2024/04/14 04:04:37;;;;;;;7.13;0.85;;;;;;;6.43;48.74;101857.81;5350881;26;20468;-73
2024/04/14 04:07:02;;;;;;;10.65;0.88;;;;;;;6.09;49.47;101856.25;5354999;26;20011;-69
2024/04/14 04:09:28;;;;;;;8.48;1.45;;;;;;;6.14;48.80;101860.56;5343777;26;20015;-69
2024/04/14 04:11:54;;;;;;;10.50;0.77;;;;;;;6.17;48.39;101856.22;5371067;26;20023;-68
2024/04/14 04:14:20;;;;;;;7.85;0.80;;;;;;;6.32;47.90;101865.66;5382975;26;19999;-69
2024/04/14 04:16:45;;;;;;;8.38;0.40;;;;;;;6.17;47.65;101864.00;5356983;26;20021;-67
2024/04/14 04:19:12;;;;;;;4.25;0.85;;;;;;;6.35;47.08;101869.97;5351650;26;21730;-68
2024/04/14 04:21:37;;;;;;;14.20;0.88;;;;;;;6.24;47.21;101867.44;5347201;26;20040;-69
2024/04/14 04:24:03;;;;;;;7.53;0.50;;;;;;;6.27;47.13;101863.06;5351317;26;20081;-69
2024/04/14 04:26:28;;;;;;;7.95;0.38;;;;;;;6.19;46.92;101862.25;5351804;26;20472;-68
2024/04/14 04:28:54;;;;;;;8.75;0.40;;;;;;;5.98;46.96;101863.22;5362773;26;20022;-69
2024/04/14 04:31:20;;;;;;;6.20;0.65;;;;;;;5.83;47.17;101873.69;5326797;26;20004;-69
2024/04/14 04:33:45;;;;;;;8.73;0.77;;;;;;;6.00;46.60;101869.28;5361365;26;20022;-74
2024/04/14 04:36:13;;;;;;;10.88;1.65;;;;;;;6.02;46.72;101870.13;5353323;26;20009;-68
2024/04/14 04:38:40;;;;;;;8.10;0.55;;;;;;;5.93;46.54;101875.38;5349975;26;20026;-67
2024/04/14 04:41:07;;;;;;;8.55;0.85;;;;;;;6.08;46.61;101877.91;5348611;26;20076;-70
2024/04/14 04:43:32;;;;;;;7.47;1.15;;;;;;;6.03;46.71;101869.25;5354620;26;20012;-70
2024/04/14 04:45:58;;;;;;;5.93;0.75;;;;;;;5.99;46.37;101872.72;5353624;26;20032;-71
2024/04/14 04:48:24;;;;;;;3.28;0.88;;;;;;;6.14;46.20;101876.13;5354140;26;20011;-72
2024/04/14 04:50:50;;;;;;;3.22;0.40;;;;;;;6.33;45.95;101876.91;5359605;26;20126;-68
2024/04/14 04:53:16;;;;;;;11.65;0.50;;;;;;;6.38;45.76;101886.41;5353679;26;22042;-69
2024/04/14 04:55:44;;;;;;;7.07;1.15;;;;;;;5.96;46.50;101887.47;5352905;26;20003;-69
2024/04/14 04:58:10;;;;;;;4.28;0.30;;;;;;;6.26;45.83;101889.03;5352703;26;20558;-70
2024/04/14 05:00:36;;;;;;;10.75;1.23;;;;;;;6.40;45.71;101891.59;5355398;26;20783;-71
2024/04/14 05:03:01;;;;;;;8.75;0.30;;;;;;;6.35;45.81;101891.63;5354877;26;20064;-74
2024/04/14 05:05:27;;;;;;;11.35;0.95;;;;;;;6.62;45.18;101885.38;5336411;26;20003;-73
2024/04/14 05:07:52;;;;;;;4.25;0.50;;;;;;;6.71;45.54;101889.66;5355425;26;20000;-73
2024/04/14 05:10:18;;;;;;;6.80;1.02;;;;;;;6.66;45.43;101894.88;5356678;26;21190;-74
2024/04/14 05:12:43;;;;;;;8.52;0.30;;;;;;;6.71;45.04;101900.06;5355574;26;20821;-72
2024/04/14 05:15:09;;;;;;;7.47;0.60;;;;;;;6.88;44.78;101892.97;5346803;26;20562;-71
2024/04/14 05:17:35;;;;;;;10.57;1.42;;;;;;;6.75;45.04;101906.91;5363288;26;20002;-73
2024/04/14 05:20:00;;;;;;;5.95;0.63;;;;;;;6.84;44.95;101893.88;5356615;26;20655;-68
2024/04/14 05:22:26;;;;;;;7.13;1.00;;;;;;;7.07;44.72;101904.06;5361409;26;20369;-67
2024/04/14 05:24:51;;;;;;;9.98;1.20;;;;;;;7.37;44.06;101906.41;5355326;26;20027;-66
2024/04/14 05:27:20;;;;;;;6.72;0.60;;;;;;;7.82;43.96;101917.22;5330209;26;20078;-67
2024/04/14 05:29:46;;;;;;;7.85;0.88;;;;;;;8.44;41.93;101909.47;5351979;26;20015;-66
2024/04/14 05:32:15;;;;;;;7.40;0.82;;;;;;;8.73;41.15;101912.50;5347847;26;20578;-67
2024/04/14 05:34:41;;;;;;;6.03;0.63;;;;;;;9.21;41.17;101914.34;5386724;26;20339;-71
2024/04/14 05:37:07;;;;;;;4.85;0.45;;;;;;;8.02;41.60;101917.81;5388543;26;20047;-71
2024/04/14 05:39:32;;;;;;;3.08;0.55;;;;;;;9.33;40.65;101914.13;5381973;26;20082;-71
2024/04/14 05:41:58;;;;;;;9.68;0.50;;;;;;;9.16;39.91;101916.16;5395439;26;20070;-70
2024/04/14 05:44:24;;;;;;;13.82;0.65;;;;;;;9.96;38.54;101914.66;5396883;26;20902;-72
2024/04/14 05:46:50;;;;;;;7.35;0.68;;;;;;;10.24;37.64;101920.19;5358360;25;20025;-71
2024/04/14 05:49:20;;;;;;;5.78;0.60;;;;;;;11.12;37.15;101920.75;5386285;26;20716;-73
2024/04/14 05:51:48;;;;;;;3.47;0.55;;;;;;;11.52;35.29;101924.91;5382796;25;20003;-70
2024/04/14 05:54:15;;;;;;;8.07;0.35;;;;;;;12.26;35.08;101923.69;5398452;26;20007;-72
2024/04/14 05:56:41;;;;;;;9.25;0.82;;;;;;;11.94;34.86;101925.50;5388885;26;21308;-68
2024/04/14 05:59:07;;;;;;;6.47;0.75;;;;;;;11.23;36.22;101919.56;5389053;26;20046;-68
2024/04/14 06:01:32;;;;;;;5.93;0.35;;;;;;;11.50;36.13;101927.56;5399095;26;20449;-69
2024/04/14 06:03:57;;;;;;;6.72;1.10;;;;;;;11.72;35.41;101927.00;5397608;26;20214;-68
2024/04/14 06:06:23;;;;;;;11.45;0.75;;;;;;;12.11;35.32;101930.28;5392554;26;20012;-69
2024/04/14 06:08:48;;;;;;;6.22;0.50;;;;;;;11.93;35.01;101930.78;5385229;25;20007;-72
2024/04/14 06:11:14;;;;;;;2.85;0.38;;;;;;;11.29;36.62;101928.16;5388289;26;20025;-72
2024/04/14 06:13:39;;;;;;;12.05;2.15;;;;;;;11.94;36.11;101933.38;5380124;26;20461;-71
2024/04/14 06:16:18;;;;;;;6.93;0.43;;;;;;;11.72;35.53;101927.00;5386154;26;20025;-73
2024/04/14 06:18:48;;;;;;;5.20;0.30;;;;;;;11.99;35.44;101930.59;5372811;26;22025;-72
2024/04/14 06:21:24;;;;;;;7.90;0.40;;;;;;;12.91;34.53;101938.25;5367798;26;20118;-73
2024/04/14 06:23:52;;;;;;;5.65;0.30;;;;;;;13.16;33.84;101935.69;5370435;26;20018;-71
2024/04/14 06:26:25;;;;;;;8.80;0.93;;;;;;;12.88;34.20;101944.47;5383329;26;20023;-72
2024/04/14 06:28:53;;;;;;;2.40;0.40;;;;;;;13.09;33.42;101937.69;5407288;26;20003;-74
2024/04/14 06:31:21;;;;;;;3.72;0.40;;;;;;;13.46;33.86;101948.66;5387444;26;19994;-73
2024/04/14 06:33:46;;;;;;;6.93;0.73;;;;;;;14.66;31.36;101938.97;5376287;26;20811;-72
2024/04/14 06:36:24;;;;;;;5.97;0.52;;;;;;;14.32;31.99;101933.25;5391510;26;20007;-73
2024/04/14 06:38:54;;;;;;;4.72;0.22;;;;;;;14.59;31.50;101938.34;5375749;26;20006;-67
2024/04/14 06:41:31;;;;;;;;;;;;;;;;;;;;;
2024/04/14 06:44:24;;;;;;;3.53;0.63;;;;;;;15.92;29.13;101942.31;5384492;26;19925;-67
2024/04/14 06:46:49;;;;;;;4.90;0.38;;;;;;;15.74;30.00;101948.44;5339536;26;20006;-68
2024/04/14 06:49:20;;;;;;;3.28;0.20;;;;;;;13.78;32.35;101958.03;5378467;26;20723;-69
2024/04/14 06:52:02;;;;;;;5.88;0.57;;;;;;;12.81;34.44;101953.47;5362484;26;20063;-73
2024/04/14 06:54:33;;;;;;;12.68;0.40;;;;;;;12.19;34.22;101972.81;5315328;26;20010;-73
2024/04/14 06:57:02;;;;;;;5.97;1.10;;;;;;;11.77;35.25;101967.00;5322306;26;21294;-75
2024/04/14 06:59:37;;;;;;;4.85;0.50;;;;;;;11.98;34.38;101981.31;5355683;26;20007;-75
2024/04/14 07:02:16;;;;;;;7.28;0.35;;;;;;;12.57;33.89;101969.94;5358635;26;20075;-72
2024/04/14 07:04:44;;;;;;;10.65;0.50;;;;;;;14.08;32.58;101965.72;5397500;26;19995;-73
2024/04/14 07:07:20;;;;;;;7.63;0.77;;;;;;;14.54;30.14;101969.22;5372352;26;19999;-71
2024/04/14 07:09:53;;;;;;;6.03;0.45;;;;;;;14.83;30.02;101970.69;5367768;26;20829;-67
2024/04/14 07:12:21;;;;;;;4.13;0.55;;;;;;;16.18;28.69;101969.31;5364148;26;20000;-66
2024/04/14 07:14:54;;;;;;;7.28;0.40;;;;;;;15.83;28.87;101968.25;5374664;26;19998;-67
2024/04/14 07:17:27;;;;;;;4.35;0.50;;;;;;;16.05;27.41;101968.16;5355478;26;20025;-67
2024/04/14 07:19:53;;;;;;;3.97;0.63;;;;;;;15.90;28.33;101975.81;5378193;26;19995;-74
2024/04/14 07:22:31;;;;;;;4.03;0.57;;;;;;;17.07;26.66;101975.59;5383434;26;20488;-69
2024/04/14 07:25:07;;;;;;;5.18;0.55;;;;;;;15.72;27.75;101979.28;5391214;26;20368;-71
2024/04/14 07:27:35;;;;;;;5.35;1.00;;;;;;;16.06;28.03;101977.78;5349963;26;20673;-71
2024/04/14 07:30:04;;;;;;;4.78;0.25;;;;;;;14.98;27.86;101979.75;5387920;26;20432;-72
2024/04/14 07:32:32;;;;;;;3.28;0.22;;;;;;;15.13;28.18;101984.38;5385470;26;20013;-73
2024/04/14 07:35:03;;;;;;;6.93;0.47;;;;;;;15.82;28.11;101979.72;5370874;26;20478;-72
2024/04/14 07:37:38;;;;;;;4.72;0.60;;;;;;;16.02;27.46;101986.75;5386942;26;20333;-70
2024/04/14 07:40:10;;;;;;;5.38;0.55;;;;;;;16.05;26.65;101991.91;5383989;26;20008;-70
2024/04/14 07:42:40;;;;;;;5.13;0.40;;;;;;;15.49;27.19;101983.78;5334504;26;20018;-71
2024/04/14 07:45:15;;;;;;;4.50;0.60;;;;;;;14.27;30.13;101987.75;5378556;26;20011;-71
2024/04/14 07:48:10;;;;;;;4.72;0.43;;;;;;;15.12;29.40;101993.19;5363783;26;20010;-70
2024/04/14 07:50:46;;;;;;;8.68;0.63;;;;;;;16.38;27.25;101998.25;5382852;26;20010;-70
2024/04/14 07:53:16;;;;;;;3.55;0.40;;;;;;;13.46;31.31;102007.28;5392098;25;19995;-71
2024/04/14 07:55:54;;;;;;;5.95;0.22;;;;;;;13.77;30.28;101998.38;5356030;26;20000;-71
2024/04/14 07:58:29;;;;;;;3.83;0.60;;;;;;;13.64;30.47;102000.56;5343779;26;19999;-74
2024/04/14 08:00:59;;;;;;;4.63;0.30;;;;;;;14.96;29.10;102014.03;5344828;26;20052;-73
2024/04/14 08:03:30;;;;;;;4.25;0.40;;;;;;;15.05;28.93;102004.91;5348914;26;20010;-74
2024/04/14 08:06:08;;;;;;;6.13;0.30;;;;;;;15.43;28.04;102009.53;5317825;26;20014;-74
2024/04/14 08:08:39;;;;;;;9.65;0.40;;;;;;;16.27;27.14;102016.38;5331757;26;20433;-72
2024/04/14 08:11:27;;;;;;;5.32;0.28;;;;;;;14.33;29.32;102003.31;5350841;26;20431;-70
2024/04/14 08:13:53;;;;;;;8.10;0.70;;;;;;;14.52;29.93;102019.31;5302496;26;20023;-70
2024/04/14 08:16:19;;;;;;;5.43;0.40;;;;;;;11.58;33.05;102026.88;5356799;26;20544;-69
2024/04/14 08:18:45;;;;;;;4.78;0.40;;;;;;;10.94;35.24;102029.31;5343731;26;20007;-70
2024/04/14 08:21:11;;;;;;;6.78;0.40;;;;;;;11.85;33.83;102023.56;5357124;26;20003;-69
2024/04/14 08:23:37;;;;;;;5.72;0.28;;;;;;;12.72;32.33;102026.34;5352183;26;20026;-69
2024/04/14 08:26:02;;;;;;;7.00;0.40;;;;;;;13.31;31.23;102026.19;5349408;26;20038;-69
2024/04/14 08:28:28;;;;;;;4.68;0.47;;;;;;;12.59;32.90;102031.94;5387864;26;20049;-69
2024/04/14 08:30:55;;;;;;;4.85;0.30;;;;;;;13.22;31.81;102032.59;5369019;26;20015;-69
2024/04/14 08:33:21;;;;;;;6.93;0.85;;;;;;;13.34;30.20;102028.72;5398194;26;20060;-70
2024/04/14 08:35:46;;;;;;;3.17;0.30;;;;;;;13.21;29.27;102019.53;5380431;26;20002;-69
2024/04/14 08:38:12;;;;;;;2.13;0.20;;;;;;;13.57;29.47;102025.34;5392757;26;20006;-69
2024/04/14 08:40:38;;;;;;;6.82;0.82;;;;;;;15.19;27.04;102025.38;5388941;26;20450;-69
2024/04/14 08:43:03;;;;;;;9.65;0.38;;;;;;;14.97;27.13;102018.38;5388797;26;20543;-69
2024/04/14 08:45:31;;;;;;;3.15;0.20;;;;;;;14.18;28.12;102024.91;5392214;26;20006;-69
2024/04/14 08:47:59;;;;;;;3.67;0.40;;;;;;;14.10;28.01;102029.63;5347789;26;21934;-70
2024/04/14 08:50:24;;;;;;;4.57;0.30;;;;;;;14.58;27.69;102033.13;5394240;26;20073;-69
2024/04/14 08:52:50;;;;;;;6.78;0.77;;;;;;;15.48;27.23;102026.88;5378007;26;20306;-69
2024/04/14 08:55:16;;;;;;;4.93;0.20;;;;;;;16.96;25.39;102026.31;5394034;26;20003;-69
2024/04/14 08:57:42;;;;;;;10.18;1.08;;;;;;;15.48;27.46;102024.22;5380272;26;20419;-69
2024/04/14 09:00:13;;;;;;;8.93;0.63;;;;;;;15.68;27.01;102028.63;5401897;26;20014;-69
2024/04/14 09:02:42;;;;;;;3.78;0.70;;;;;;;15.46;26.50;102046.25;5381787;26;20618;-69
2024/04/14 09:05:11;;;;;;;2.35;0.50;;;;;;;15.22;27.00;102037.63;5393458;26;20987;-69
2024/04/14 09:07:37;;;;;;;4.63;0.60;;;;;;;13.63;28.09;102034.78;5396321;25;20017;-69
2024/04/14 09:10:04;;;;;;;3.33;0.40;;;;;;;12.43;30.67;102044.63;5408145;26;20004;-69
2024/04/14 09:12:30;;;;;;;5.15;0.52;;;;;;;12.36;30.57;102044.88;5393630;26;20007;-69
2024/04/14 09:14:56;;;;;;;1.10;0.30;;;;;;;11.63;31.82;102048.56;5391356;26;20092;-69
2024/04/14 09:17:22;;;;;;;2.85;0.10;;;;;;;12.17;30.54;102041.91;5383971;26;20473;-69
2024/04/14 09:19:47;;;;;;;3.45;0.20;;;;;;;12.72;29.81;102035.06;5379301;26;20044;-70
2024/04/14 09:22:14;;;;;;;3.90;0.52;;;;;;;12.92;29.79;102028.38;5388694;26;20497;-70
2024/04/14 09:24:39;;;;;;;5.03;0.22;;;;;;;12.10;30.37;102035.13;5382379;26;20081;-69
2024/04/14 09:27:05;;;;;;;7.72;0.20;;;;;;;12.31;31.00;102036.25;5374732;26;21436;-69
2024/04/14 09:29:31;;;;;;;3.70;0.30;;;;;;;13.07;29.82;102033.97;5378116;26;21314;-69
2024/04/14 09:31:57;;;;;;;3.38;0.30;;;;;;;13.24;29.76;102032.56;5377553;26;20007;-70
2024/04/14 09:34:23;;;;;;;3.55;0.22;;;;;;;13.17;29.88;102031.06;5383499;26;20018;-69
2024/04/14 09:36:49;;;;;;;2.00;0.32;;;;;;;12.44;30.56;102021.88;5372516;25;20004;-70
2024/04/14 09:39:18;;;;;;;2.95;0.40;;;;;;;11.32;32.11;102033.63;5385472;26;20036;-70
2024/04/14 09:41:44;;;;;;;1.85;0.65;;;;;;;10.99;32.96;102025.66;5378715;25;20003;-69
2024/04/14 09:44:10;;;;;;;2.92;0.30;;;;;;;11.73;32.60;102029.09;5387426;26;20038;-69
2024/04/14 09:46:37;;;;;;;3.15;0.20;;;;;;;11.76;32.43;102034.25;5378695;26;20335;-70
2024/04/14 09:49:04;;;;;;;3.03;0.20;;;;;;;12.58;31.87;102030.22;5381175;26;20014;-69
2024/04/14 09:51:30;;;;;;;4.40;0.30;;;;;;;12.53;32.60;102026.00;5388756;26;20015;-69
2024/04/14 09:53:58;;;;;;;4.43;0.47;;;;;;;13.20;31.94;102034.41;5378991;26;20002;-69
2024/04/14 09:56:24;;;;;;;3.03;0.35;;;;;;;12.36;31.96;102035.25;5388006;26;20452;-68
2024/04/14 09:58:50;;;;;;;5.07;0.20;;;;;;;12.85;31.07;102038.19;5373124;26;20021;-69
2024/04/14 10:01:23;;;;;;;3.25;0.20;;;;;;;11.60;32.45;102048.66;5378581;26;20006;-69
2024/04/14 10:03:54;;;;;;;5.10;0.75;;;;;;;12.46;30.98;102057.66;5378169;26;20715;-69
2024/04/14 10:06:21;;;;;;;3.17;0.40;;;;;;;11.50;29.29;102053.25;5380410;26;20025;-69
2024/04/14 10:08:47;;;;;;;7.40;0.38;;;;;;;12.47;27.57;102069.03;5378823;26;20011;-69
2024/04/14 10:11:13;;;;;;;4.78;0.28;;;;;;;11.93;28.17;102060.00;5380617;26;20003;-69
2024/04/14 10:13:53;;;;;;;5.78;0.60;;;;;;;12.54;27.85;102069.69;5385061;26;20051;-68
2024/04/14 10:16:20;;;;;;;5.45;0.20;;;;;;;12.41;27.71;102066.56;5359380;26;20783;-69
2024/04/14 10:18:46;;;;;;;3.28;0.20;;;;;;;12.03;28.58;102073.75;5378623;26;20014;-69
2024/04/14 10:21:15;;;;;;;3.63;0.55;;;;;;;12.44;28.69;102075.19;5382862;26;20080;-69
2024/04/14 10:23:48;;;;;;;3.65;0.50;;;;;;;13.05;28.88;102071.69;5382803;26;20022;-69
2024/04/14 10:26:14;;;;;;;4.63;0.55;;;;;;;13.28;28.25;102069.16;5376683;26;20515;-69
2024/04/14 10:28:51;;;;;;;4.10;0.57;;;;;;;14.02;27.92;102068.47;5414272;26;20022;-68
2024/04/14 10:31:51;;;;;;;4.00;0.40;;;;;;;13.66;28.69;102074.09;5366076;26;20833;-69
2024/04/14 10:34:23;;;;;;;4.55;0.20;;;;;;;14.51;27.97;102053.53;5387538;26;20349;-69
2024/04/14 10:36:58;;;;;;;3.00;0.50;;;;;;;15.25;27.01;102058.56;5372067;26;20007;-69
2024/04/14 10:39:24;;;;;;;1.83;0.30;;;;;;;14.17;27.38;102065.28;5386400;26;20025;-69
2024/04/14 10:41:50;;;;;;;2.38;0.20;;;;;;;13.04;28.68;102068.19;5385752;26;20050;-69
2024/04/14 10:44:18;;;;;;;6.20;0.30;;;;;;;11.53;29.61;102065.38;5380841;26;20014;-69
2024/04/14 10:46:46;;;;;;;7.60;0.60;;;;;;;11.85;29.62;102075.09;5374450;26;20004;-69
2024/04/14 10:49:12;;;;;;;6.65;0.70;;;;;;;12.43;29.27;102064.75;5381629;26;21611;-69
2024/04/14 10:51:38;;;;;;;6.22;0.63;;;;;;;12.89;28.72;102055.53;5388293;25;20008;-70
2024/04/14 10:54:04;;;;;;;2.95;0.60;;;;;;;13.23;29.12;102054.50;5378683;26;20087;-69
2024/04/14 10:56:29;;;;;;;7.80;1.80;;;;;;;14.51;27.04;102053.53;5371501;26;20019;-69
2024/04/14 10:58:55;;;;;;;4.93;1.98;;;;;;;14.26;27.49;102053.56;5318977;26;20486;-69
2024/04/14 11:01:23;;;;;;;2.47;0.60;;;;;;;14.60;27.54;102042.66;5382146;26;20025;-69
2024/04/14 11:03:50;;;;;;;8.10;1.92;;;;;;;13.61;28.55;102044.50;5380134;26;20011;-69
2024/04/14 11:06:16;;;;;;;5.05;0.60;;;;;;;13.83;28.38;102040.22;5379096;25;20022;-70
2024/04/14 11:08:42;;;;;;;2.67;0.82;;;;;;;13.88;29.07;102047.94;5396154;26;21008;-70
2024/04/14 11:11:09;;;;;;;7.28;0.70;;;;;;;12.71;29.38;102041.22;5379858;26;20875;-70
2024/04/14 11:13:35;;;;;;;1.42;0.20;;;;;;;13.78;28.78;102050.00;5391401;26;20006;-70
2024/04/14 11:16:02;;;;;;;5.53;0.30;;;;;;;13.73;28.17;102037.03;5379842;26;20083;-69
2024/04/14 11:18:29;;;;;;;1.65;0.40;;;;;;;12.94;29.23;102032.66;5387780;26;19999;-70
2024/04/14 11:20:55;;;;;;;5.05;0.50;;;;;;;12.26;30.26;102037.25;5379671;25;20482;-69
2024/04/14 11:23:25;;;;;;;3.05;0.52;;;;;;;11.60;32.91;102043.41;5389917;26;20587;-69
2024/04/14 11:25:51;;;;;;;8.50;0.20;;;;;;;12.89;31.36;102039.78;5379876;26;20090;-70
2024/04/14 11:28:17;;;;;;;9.27;0.65;;;;;;;13.93;29.47;102040.72;5385488;26;20419;-69
2024/04/14 11:30:43;;;;;;;6.30;0.30;;;;;;;13.71;29.35;102030.97;5359178;26;20494;-70